Time;durP1;ratioP1;P1;durP2;ratioP2;P2;SDS_P1;SDS_P2;PMS_P1;PMS_P2;Temp;Humidity;BMP_temperature;BMP_pressure;BME280_temperature;BME280_humidity;BME280_pressure;Samples;Min_cycle;Max_cycle;Signal;HPM_P1;HPM_P2
2021/05/19 00:02:04;;;;;;;47.40;25.80;;;8.60;99.90;;;;;;4433887;28;657526;-76
2021/05/19 00:04:52;;;;;;;51.13;25.03;;;8.60;99.90;;;;;;4450125;28;657141;-75
2021/05/19 00:07:40;;;;;;;48.50;25.37;;;8.60;99.90;;;;;;4424216;28;658299;-75
2021/05/19 00:10:27;;;;;;;53.87;26.93;;;8.60;99.90;;;;;;4441905;28;656600;-76
2021/05/19 00:13:14;;;;;;;53.27;27.53;;;8.60;99.90;;;;;;4419867;28;658047;-76
2021/05/19 00:16:01;;;;;;;47.17;25.60;;;8.60;99.90;;;;;;4447255;28;657868;-76
2021/05/19 00:18:48;;;;;;;47.83;25.40;;;8.60;99.90;;;;;;4428726;28;657414;-76
2021/05/19 00:21:36;;;;;;;47.23;25.27;;;8.50;99.90;;;;;;4442352;28;657140;-76
2021/05/19 00:24:23;;;;;;;44.60;24.80;;;8.50;99.90;;;;;;4421500;28;657955;-76
2021/05/19 00:27:10;;;;;;;43.10;24.50;;;8.40;99.90;;;;;;4451166;28;658033;-76
2021/05/19 00:29:57;;;;;;;42.70;24.30;;;8.40;99.90;;;;;;4435642;28;657438;-76
2021/05/19 00:32:44;;;;;;;42.78;23.80;;;8.40;99.90;;;;;;4450137;28;657840;-76
2021/05/19 00:35:31;;;;;;;41.30;23.13;;;8.40;99.90;;;;;;4444236;28;656937;-76
2021/05/19 00:38:19;;;;;;;43.03;23.80;;;8.40;99.90;;;;;;4417060;28;657262;-76
2021/05/19 00:41:07;;;;;;;44.50;21.93;;;8.30;99.90;;;;;;4449775;28;657160;-76
2021/05/19 00:44:03;;;;;;;39.40;21.67;;;8.30;99.90;;;;;;4423239;28;658941;-76
2021/05/19 00:46:52;;;;;;;39.27;21.27;;;8.30;99.90;;;;;;4424053;28;658782;-76
2021/05/19 00:49:39;;;;;;;37.77;20.57;;;8.20;99.90;;;;;;4417030;28;658457;-76
2021/05/19 00:52:26;;;;;;;33.30;19.63;;;8.20;99.90;;;;;;4449027;28;657751;-76
2021/05/19 00:55:14;;;;;;;34.63;19.43;;;8.10;99.90;;;;;;4419922;28;657252;-76
2021/05/19 00:58:01;;;;;;;34.33;19.33;;;8.10;99.90;;;;;;4450107;28;657643;-76
2021/05/19 01:00:48;;;;;;;33.07;19.73;;;8.10;99.90;;;;;;4422198;28;657509;-76
2021/05/19 01:03:36;;;;;;;34.57;19.20;;;8.10;99.90;;;;;;4451029;28;659041;-76
2021/05/19 01:06:28;;;;;;;32.03;18.63;;;8.00;99.90;;;;;;4420909;28;657691;-76
2021/05/19 01:09:36;;;;;;;31.37;18.13;;;8.00;99.90;;;;;;4424022;28;658430;-76
2021/05/19 01:12:25;;;;;;;29.40;18.23;;;8.00;99.90;;;;;;4417844;28;657530;-76
2021/05/19 01:15:14;;;;;;;31.60;18.93;;;8.00;99.90;;;;;;4442803;28;658484;-76
2021/05/19 01:18:02;;;;;;;29.90;18.77;;;8.00;99.90;;;;;;4450125;28;657469;-76
2021/05/19 01:20:49;;;;;;;35.03;18.33;;;7.90;99.90;;;;;;4412211;28;659097;-75
2021/05/19 01:23:38;;;;;;;39.13;17.67;;;7.90;99.90;;;;;;4449708;28;658078;-76
2021/05/19 01:26:25;;;;;;;30.73;16.90;;;7.90;99.90;;;;;;4425875;28;658502;-76
2021/05/19 01:29:12;;;;;;;34.07;18.20;;;7.80;99.90;;;;;;4426433;28;658562;-76
2021/05/19 01:32:00;;;;;;;30.43;18.10;;;7.80;99.90;;;;;;4445696;28;658634;-76
2021/05/19 01:34:47;;;;;;;32.93;18.07;;;7.70;99.90;;;;;;4420772;28;657508;-76
2021/05/19 01:37:35;;;;;;;33.63;17.33;;;7.70;99.90;;;;;;4447721;28;658578;-76
2021/05/19 01:40:23;;;;;;;29.20;17.27;;;7.60;99.90;;;;;;4443140;28;657697;-76
2021/05/19 01:43:10;;;;;;;31.23;18.53;;;7.60;99.90;;;;;;4449284;28;658530;-76
2021/05/19 01:45:59;;;;;;;32.47;18.10;;;7.60;99.90;;;;;;4425971;28;657728;-76
2021/05/19 01:48:46;;;;;;;32.60;18.17;;;7.50;99.90;;;;;;4449457;28;658058;-76
2021/05/19 01:51:33;;;;;;;30.60;18.70;;;7.50;99.90;;;;;;4419686;28;658135;-76
2021/05/19 01:54:21;;;;;;;28.97;18.10;;;7.50;99.90;;;;;;4449162;28;658692;-76
2021/05/19 01:57:09;;;;;;;34.93;17.93;;;7.50;99.90;;;;;;4427509;28;658256;-76
2021/05/19 01:59:56;;;;;;;31.13;18.40;;;7.40;99.90;;;;;;4442301;28;658399;-76
2021/05/19 02:02:43;;;;;;;30.43;18.27;;;7.30;99.90;;;;;;4421205;28;657489;-76
2021/05/19 02:05:31;;;;;;;32.83;18.27;;;7.30;99.90;;;;;;4441226;28;658335;-76
2021/05/19 02:08:18;;;;;;;31.03;17.93;;;7.30;99.90;;;;;;4426825;28;657987;-76
2021/05/19 02:11:05;;;;;;;34.47;19.13;;;7.20;99.90;;;;;;4439035;28;658113;-76
2021/05/19 02:13:53;;;;;;;34.03;19.33;;;7.20;99.90;;;;;;4427644;28;657552;-76
2021/05/19 02:16:41;;;;;;;32.20;19.03;;;7.10;99.90;;;;;;4434748;28;659043;-76
2021/05/19 02:19:28;;;;;;;41.80;18.87;;;7.00;99.90;;;;;;4426663;28;657581;-76
2021/05/19 02:22:15;;;;;;;33.97;18.27;;;7.00;99.90;;;;;;4438285;28;658523;-76
2021/05/19 02:25:02;;;;;;;40.90;19.37;;;6.90;99.90;;;;;;4449769;28;657933;-76
2021/05/19 02:27:50;;;;;;;34.20;19.03;;;6.90;99.90;;;;;;4415349;28;657074;-76
2021/05/19 02:30:38;;;;;;;30.40;18.50;;;6.80;99.90;;;;;;4452753;28;657972;-76
2021/05/19 02:33:25;;;;;;;36.33;19.33;;;6.70;99.90;;;;;;4429943;28;658120;-76
2021/05/19 02:36:12;;;;;;;38.60;19.50;;;6.70;99.90;;;;;;4452379;28;658274;-77
2021/05/19 02:38:59;;;;;;;33.93;19.17;;;6.60;99.90;;;;;;4430239;28;657120;-76
2021/05/19 02:41:46;;;;;;;34.97;19.10;;;6.60;99.90;;;;;;4448784;28;657857;-76
2021/05/19 02:44:33;;;;;;;33.03;19.17;;;6.60;99.90;;;;;;4424005;28;658519;-75
2021/05/19 02:47:21;;;;;;;40.77;19.67;;;6.50;99.90;;;;;;4449162;28;658849;-76
2021/05/19 02:50:08;;;;;;;34.87;20.10;;;6.50;99.90;;;;;;4429521;28;657636;-76
2021/05/19 02:52:55;;;;;;;38.50;21.30;;;6.40;99.90;;;;;;4451816;28;658738;-76
2021/05/19 02:55:42;;;;;;;35.97;20.63;;;6.40;99.90;;;;;;4429120;28;657590;-76
2021/05/19 02:58:29;;;;;;;45.10;20.00;;;6.40;99.90;;;;;;4453046;28;657887;-76
2021/05/19 03:01:17;;;;;;;34.50;18.23;;;6.40;99.90;;;;;;4453084;28;658064;-76
2021/05/19 03:04:05;;;;;;;36.57;19.63;;;6.40;99.90;;;;;;4429759;28;659114;-76
2021/05/19 03:06:52;;;;;;;42.15;19.90;;;6.30;99.90;;;;;;4429657;28;657922;-76
2021/05/19 03:09:39;;;;;;;38.43;20.03;;;6.30;99.90;;;;;;4452630;28;657849;-76
2021/05/19 03:12:26;;;;;;;35.13;19.20;;;6.30;99.90;;;;;;4446517;28;657022;-76
2021/05/19 03:15:15;;;;;;;34.37;19.40;;;6.20;99.90;;;;;;4411561;28;657618;-76
2021/05/19 03:18:02;;;;;;;31.10;18.83;;;6.20;99.90;;;;;;4452357;28;657153;-76
2021/05/19 03:20:49;;;;;;;39.00;20.03;;;6.20;99.90;;;;;;4428422;28;657847;-76
2021/05/19 03:23:36;;;;;;;43.33;20.37;;;6.20;99.90;;;;;;4451891;28;657660;-76
2021/05/19 03:26:23;;;;;;;33.97;19.33;;;6.20;99.90;;;;;;4418875;28;657459;-76
2021/05/19 03:29:10;;;;;;;35.03;19.43;;;6.20;99.90;;;;;;4441468;28;657663;-76
2021/05/19 03:31:57;;;;;;;33.63;19.57;;;6.20;99.90;;;;;;4421585;28;657838;-76
2021/05/19 03:34:44;;;;;;;37.40;19.37;;;6.20;99.90;;;;;;4451833;28;658363;-76
2021/05/19 03:37:32;;;;;;;34.33;20.17;;;6.10;99.90;;;;;;4438247;28;657631;-76
2021/05/19 03:40:19;;;;;;;36.80;20.37;;;6.20;99.90;;;;;;4421027;28;657666;-76
2021/05/19 03:43:06;;;;;;;36.85;20.48;;;6.20;99.90;;;;;;4451859;28;657395;-76
2021/05/19 03:45:53;;;;;;;36.55;20.67;;;6.20;99.90;;;;;;4428016;28;658672;-76
2021/05/19 03:48:40;;;;;;;35.83;21.10;;;6.30;99.90;;;;;;4450522;28;657936;-76
2021/05/19 03:51:28;;;;;;;32.53;20.00;;;6.50;99.90;;;;;;4428561;28;658268;-76
2021/05/19 03:54:16;;;;;;;38.47;21.03;;;6.60;99.90;;;;;;4451656;28;657992;-76
2021/05/19 03:57:07;;;;;;;40.55;20.33;;;6.70;99.90;;;;;;4416462;28;657592;-76
2021/05/19 03:59:54;;;;;;;40.97;21.10;;;6.90;99.90;;;;;;4428255;28;658128;-76
2021/05/19 04:02:42;;;;;;;34.13;19.17;;;7.10;99.90;;;;;;4439937;28;657669;-76
2021/05/19 04:05:32;;;;;;;40.00;20.50;;;7.30;99.90;;;;;;4429309;28;657640;-76
2021/05/19 04:08:19;;;;;;;40.47;22.70;;;7.50;99.90;;;;;;4410924;28;658110;-76
2021/05/19 04:11:07;;;;;;;41.30;22.63;;;7.70;99.90;;;;;;4451429;28;657797;-77
2021/05/19 04:13:54;;;;;;;39.42;22.50;;;7.80;99.90;;;;;;4421360;28;658720;-76
2021/05/19 04:16:41;;;;;;;41.25;20.95;;;8.00;99.90;;;;;;4450494;28;657498;-76
2021/05/19 04:19:29;;;;;;;49.60;22.40;;;8.10;99.90;;;;;;4423959;28;657461;-77
2021/05/19 04:22:16;;;;;;;56.97;27.87;;;8.10;99.90;;;;;;4446962;28;657694;-76
2021/05/19 04:25:03;;;;;;;75.40;29.87;;;8.10;99.90;;;;;;4419895;28;657426;-77
2021/05/19 04:27:51;;;;;;;81.83;27.37;;;8.10;99.90;;;;;;4449520;28;657399;-76
2021/05/19 04:30:38;;;;;;;73.37;26.57;;;8.20;99.90;;;;;;4427927;28;657842;-77
2021/05/19 04:33:25;;;;;;;71.97;26.60;;;8.20;99.90;;;;;;4447351;28;658224;-76
2021/05/19 04:36:12;;;;;;;74.27;26.07;;;8.20;99.90;;;;;;4428200;28;657309;-77
2021/05/19 04:39:00;;;;;;;72.17;24.60;;;8.20;99.90;;;;;;4450092;28;657598;-76
2021/05/19 04:41:47;;;;;;;92.87;22.80;;;8.20;99.90;;;;;;4420308;28;657695;-76
2021/05/19 04:44:36;;;;;;;123.40;24.07;;;8.10;99.90;;;;;;4441377;28;658943;-77
2021/05/19 04:47:23;;;;;;;126.30;23.57;;;8.00;99.90;;;;;;4426176;28;658551;-76
2021/05/19 04:50:10;;;;;;;191.73;22.63;;;8.00;99.90;;;;;;4441778;28;660224;-77
2021/05/19 04:52:57;;;;;;;68.57;20.53;;;8.00;99.90;;;;;;4421865;28;658536;-77
2021/05/19 04:55:44;;;;;;;56.83;22.13;;;8.00;99.90;;;;;;4449803;28;658297;-77
2021/05/19 04:58:31;;;;;;;49.30;20.93;;;8.00;99.90;;;;;;4449820;28;657074;-77
2021/05/19 05:01:19;;;;;;;48.58;21.00;;;8.00;99.90;;;;;;4426777;28;657353;-76
2021/05/19 05:04:06;;;;;;;50.47;21.33;;;8.00;99.90;;;;;;4450642;28;658513;-77
2021/05/19 05:06:53;;;;;;;65.93;23.03;;;8.10;99.90;;;;;;4421588;28;657674;-77
2021/05/19 05:09:40;;;;;;;71.87;22.27;;;8.00;99.90;;;;;;4450823;28;658396;-77
2021/05/19 05:12:27;;;;;;;67.67;22.00;;;8.10;99.90;;;;;;4420940;28;657256;-77
2021/05/19 05:15:15;;;;;;;72.50;22.13;;;8.20;99.90;;;;;;4447047;28;658576;-76
2021/05/19 05:18:03;;;;;;;76.90;23.00;;;8.20;99.90;;;;;;4422844;28;657703;-76
2021/05/19 05:20:51;;;;;;;74.00;22.67;;;8.30;99.90;;;;;;4436780;28;658232;-77
2021/05/19 05:23:38;;;;;;;82.67;23.10;;;8.40;99.90;;;;;;4426637;28;657586;-77
2021/05/19 05:26:25;;;;;;;47.63;17.70;;;8.50;99.90;;;;;;4433859;28;659013;-76
2021/05/19 05:29:12;;;;;;;55.03;23.33;;;8.60;99.90;;;;;;4428130;28;657573;-76
2021/05/19 05:32:00;;;;;;;48.30;22.40;;;8.60;99.90;;;;;;4444739;28;657520;-76
2021/05/19 05:34:48;;;;;;;58.37;19.90;;;8.70;99.90;;;;;;4426824;28;657416;-76
2021/05/19 05:37:35;;;;;;;50.97;20.37;;;8.90;99.90;;;;;;4450159;28;658670;-76
2021/05/19 05:40:23;;;;;;;55.30;19.60;;;8.90;99.90;;;;;;4426635;28;657663;-76
2021/05/19 05:43:10;;;;;;;54.70;22.37;;;9.00;99.90;;;;;;4445744;28;658145;-76
2021/05/19 05:45:57;;;;;;;42.90;20.57;;;9.20;99.90;;;;;;4442130;28;658469;-77
2021/05/19 05:48:44;;;;;;;42.37;20.87;;;9.40;99.90;;;;;;4449647;28;657559;-76
2021/05/19 05:51:32;;;;;;;44.30;20.33;;;9.40;99.90;;;;;;4437387;28;657207;-76
2021/05/19 05:54:19;;;;;;;36.80;18.00;;;9.30;99.90;;;;;;4419963;28;657790;-76
2021/05/19 05:57:07;;;;;;;36.87;18.67;;;9.30;99.90;;;;;;4442157;28;658387;-76
2021/05/19 05:59:54;;;;;;;30.83;16.27;;;9.30;99.90;;;;;;4416876;28;658071;-76
2021/05/19 06:02:42;;;;;;;31.43;15.57;;;9.30;99.90;;;;;;4441944;28;658077;-76
2021/05/19 06:05:29;;;;;;;36.83;18.43;;;9.20;99.90;;;;;;4426219;28;658262;-76
2021/05/19 06:08:17;;;;;;;36.23;18.63;;;9.20;99.90;;;;;;4449995;28;657727;-76
2021/05/19 06:11:05;;;;;;;36.57;18.07;;;9.30;99.90;;;;;;4428185;28;657855;-67
2021/05/19 06:13:52;;;;;;;35.80;18.60;;;9.50;99.90;;;;;;4421996;28;657732;-68
2021/05/19 06:16:39;;;;;;;26.83;16.40;;;9.70;99.90;;;;;;4449101;28;657691;-67
2021/05/19 06:19:26;;;;;;;25.93;15.73;;;9.80;99.90;;;;;;4450637;28;658509;-66
2021/05/19 06:22:13;;;;;;;34.43;16.87;;;9.80;99.90;;;;;;4423891;28;658042;-67
2021/05/19 06:25:01;;;;;;;28.20;14.73;;;9.90;99.90;;;;;;4434442;28;658878;-67
2021/05/19 06:27:48;;;;;;;26.87;14.43;;;9.90;99.90;;;;;;4426813;28;657675;-68
2021/05/19 06:30:35;;;;;;;30.10;16.80;;;9.90;99.90;;;;;;4440897;28;658688;-67
2021/05/19 06:33:22;;;;;;;29.00;15.63;;;9.90;99.90;;;;;;4432806;28;658387;-68
2021/05/19 06:36:09;;;;;;;21.43;12.37;;;9.90;99.90;;;;;;4446275;28;657642;-68
2021/05/19 06:38:56;;;;;;;23.38;12.10;;;10.00;99.90;;;;;;4439420;28;658460;-67
2021/05/19 06:41:46;;;;;;;20.23;12.73;;;10.10;99.90;;;;;;4425628;28;658854;-67
2021/05/19 06:44:33;;;;;;;27.43;13.30;;;10.10;99.90;;;;;;4417381;28;658470;-66
2021/05/19 06:47:20;;;;;;;35.57;16.47;;;9.90;99.90;;;;;;4430210;28;659587;-67
2021/05/19 06:50:08;;;;;;;29.10;15.32;;;9.90;99.90;;;;;;4426994;28;657274;-68
2021/05/19 06:52:55;;;;;;;25.43;15.07;;;9.90;99.90;;;;;;4446492;28;658274;-66
2021/05/19 06:55:47;;;;;;;26.05;14.48;;;10.10;99.90;;;;;;4429659;28;657903;-68
2021/05/19 06:58:35;;;;;;;20.90;13.83;;;10.10;99.90;;;;;;4413940;28;659710;-66
2021/05/19 07:01:22;;;;;;;20.47;13.23;;;10.30;99.90;;;;;;4438365;28;658941;-67
2021/05/19 07:04:09;;;;;;;18.00;12.00;;;10.50;99.90;;;;;;4436098;28;658424;-66
2021/05/19 07:06:58;;;;;;;22.37;13.73;;;10.60;99.90;;;;;;4439630;28;658944;-66
2021/05/19 07:09:44;;;;;;;22.97;14.47;;;10.70;99.90;;;;;;4418794;28;659911;-68
2021/05/19 07:12:31;;;;;;;24.13;14.60;;;10.80;99.90;;;;;;4449697;28;658122;-66
2021/05/19 07:15:21;;;;;;;22.80;14.13;;;10.80;99.90;;;;;;4418285;28;658481;-67
2021/05/19 07:18:11;;;;;;;19.30;11.67;;;11.10;99.90;;;;;;4425926;28;658788;-67
2021/05/19 07:20:58;;;;;;;18.80;11.77;;;11.30;99.90;;;;;;4421763;28;659048;-67
2021/05/19 07:23:45;;;;;;;18.27;12.10;;;11.50;99.90;;;;;;4451317;28;659839;-66
2021/05/19 07:26:33;;;;;;;18.43;12.40;;;11.80;99.90;;;;;;4435070;28;659445;-68
2021/05/19 07:29:20;;;;;;;21.17;12.53;;;11.90;99.90;;;;;;4452350;28;659660;-66
2021/05/19 07:32:08;;;;;;;20.93;11.83;;;11.80;99.90;;;;;;4427724;28;659145;-67
2021/05/19 07:34:56;;;;;;;18.40;11.83;;;11.70;99.90;;;;;;4444436;28;659385;-66
2021/05/19 07:37:44;;;;;;;17.43;11.20;;;11.90;99.90;;;;;;4428415;28;658704;-67
2021/05/19 07:40:31;;;;;;;20.47;13.40;;;12.00;99.90;;;;;;4447526;28;658586;-67
2021/05/19 07:43:18;;;;;;;31.10;18.13;;;11.80;99.90;;;;;;4428829;28;658925;-68
2021/05/19 07:46:04;;;;;;;32.50;18.80;;;11.60;99.90;;;;;;4442298;28;659304;-66
2021/05/19 07:48:52;;;;;;;36.63;19.37;;;11.30;99.90;;;;;;4445947;28;658922;-67
2021/05/19 07:51:39;;;;;;;34.40;19.10;;;11.20;99.90;;;;;;4420559;28;658766;-67
2021/05/19 07:54:28;;;;;;;35.37;18.37;;;11.10;99.90;;;;;;4437845;28;659339;-67
2021/05/19 07:57:19;;;;;;;30.57;16.37;;;10.90;99.90;;;;;;4416291;28;659745;-66
2021/05/19 08:00:10;;;;;;;30.53;16.67;;;10.80;99.90;;;;;;4417074;28;660321;-66
2021/05/19 08:02:57;;;;;;;30.43;15.10;;;10.80;99.90;;;;;;4423959;28;658528;-68
2021/05/19 08:05:45;;;;;;;28.30;15.43;;;10.90;99.90;;;;;;4450662;28;658732;-66
2021/05/19 08:08:32;;;;;;;27.47;15.13;;;11.00;99.90;;;;;;4427983;28;659302;-68
2021/05/19 08:11:19;;;;;;;22.10;11.50;;;11.20;99.90;;;;;;4435654;28;658894;-66
2021/05/19 08:14:06;;;;;;;29.10;14.90;;;11.30;99.90;;;;;;4450328;28;658377;-66
2021/05/19 08:16:53;;;;;;;23.23;13.67;;;11.50;99.90;;;;;;4427155;28;658499;-67
2021/05/19 08:19:40;;;;;;;25.58;12.88;;;11.80;99.90;;;;;;4444627;28;658507;-66
2021/05/19 08:22:28;;;;;;;18.37;10.70;;;12.20;99.90;;;;;;4436888;28;658593;-68
2021/05/19 08:25:16;;;;;;;20.70;10.67;;;12.60;99.90;;;;;;4445780;28;659499;-67
2021/05/19 08:28:04;;;;;;;18.33;11.20;;;12.70;99.90;;;;;;4425179;28;658530;-67
2021/05/19 08:30:51;;;;;;;18.23;10.27;;;13.00;99.90;;;;;;4443282;28;659840;-67
2021/05/19 08:33:37;;;;;;;19.27;9.97;;;13.40;99.90;;;;;;4426330;28;659182;-67
2021/05/19 08:36:25;;;;;;;19.20;10.23;;;13.50;99.90;;;;;;4448425;28;658920;-67
2021/05/19 08:39:13;;;;;;;16.33;9.73;;;13.40;99.90;;;;;;4430655;28;658303;-68
2021/05/19 08:42:00;;;;;;;17.43;10.20;;;13.20;99.90;;;;;;4451292;28;657766;-66
2021/05/19 08:44:47;;;;;;;19.30;10.47;;;13.30;99.90;;;;;;4423272;28;658786;-67
2021/05/19 08:47:34;;;;;;;18.03;9.60;;;13.50;99.90;;;;;;4445548;28;659129;-67
2021/05/19 08:50:21;;;;;;;16.37;9.07;;;13.70;99.90;;;;;;4447751;28;657869;-67
2021/05/19 08:53:09;;;;;;;17.63;10.07;;;13.70;99.90;;;;;;4424478;28;658165;-67
2021/05/19 08:55:56;;;;;;;14.67;9.67;;;13.70;99.90;;;;;;4442044;28;658962;-67
2021/05/19 08:58:43;;;;;;;16.00;8.70;;;13.70;99.90;;;;;;4428354;28;657622;-67
2021/05/19 09:01:36;;;;;;;17.10;8.53;;;13.90;99.90;;;;;;4439631;28;658112;-67
2021/05/19 09:04:24;;;;;;;13.40;8.40;;;14.10;99.90;;;;;;4401960;28;657555;-67
2021/05/19 09:07:17;;;;;;;12.93;7.17;;;14.20;99.90;;;;;;4444427;28;657464;-66
2021/05/19 09:10:17;;;;;;;12.03;6.27;;;14.10;99.90;;;;;;4401062;28;657608;-67
2021/05/19 09:13:05;;;;;;;11.50;7.03;;;14.40;99.90;;;;;;4401380;28;658861;-67
2021/05/19 09:15:52;;;;;;;12.00;7.63;;;14.50;99.90;;;;;;4422474;28;657821;-67
2021/05/19 09:18:46;;;;;;;12.57;7.70;;;14.50;99.90;;;;;;4450811;28;658276;-67
2021/05/19 09:21:36;;;;;;;16.00;8.10;;;14.40;99.90;;;;;;4399854;28;658210;-67
2021/05/19 09:24:32;;;;;;;11.43;7.73;;;14.30;99.90;;;;;;4423008;28;657838;-67
2021/05/19 09:27:19;;;;;;;10.77;7.03;;;14.60;99.90;;;;;;4428302;28;658470;-67
2021/05/19 09:30:08;;;;;;;11.83;8.13;;;15.10;99.90;;;;;;4449878;28;658059;-67
2021/05/19 09:32:55;;;;;;;14.03;7.93;;;14.80;99.90;;;;;;4422998;28;658971;-67
2021/05/19 09:35:42;;;;;;;15.07;8.00;;;15.10;99.90;;;;;;4441911;28;657498;-69
2021/05/19 09:38:30;;;;;;;11.20;6.80;;;15.70;99.90;;;;;;4445950;28;657741;-67
2021/05/19 09:41:19;;;;;;;8.70;5.10;;;16.00;99.90;;;;;;4445447;28;658377;-67
2021/05/19 09:44:06;;;;;;;7.33;5.00;;;16.30;99.90;;;;;;4443779;28;656711;-67
2021/05/19 09:46:54;;;;;;;12.03;5.47;;;16.70;99.90;;;;;;4424888;28;656938;-68
2021/05/19 09:49:41;;;;;;;7.23;5.43;;;16.90;99.90;;;;;;4449999;28;657794;-67
2021/05/19 09:52:28;;;;;;;10.80;5.17;;;17.20;99.90;;;;;;4421979;28;656546;-67
2021/05/19 09:55:15;;;;;;;8.93;4.87;;;17.50;99.90;;;;;;4450979;28;658108;-66
2021/05/19 09:58:02;;;;;;;10.83;5.50;;;17.40;99.90;;;;;;4441852;28;656459;-68
2021/05/19 10:00:49;;;;;;;10.00;7.40;;;17.40;99.90;;;;;;4450821;28;657350;-67
2021/05/19 10:03:37;;;;;;;9.63;7.50;;;17.40;99.90;;;;;;4446451;28;657802;-67
2021/05/19 10:06:27;;;;;;;11.03;6.73;;;18.00;99.90;;;;;;4418346;28;657405;-67
2021/05/19 10:09:15;;;;;;;7.50;6.40;;;18.10;99.90;;;;;;4423651;28;658496;-67
2021/05/19 10:12:03;;;;;;;8.27;5.43;;;18.20;99.90;;;;;;4441789;28;656496;-68
2021/05/19 10:14:50;;;;;;;14.47;6.20;;;18.40;99.90;;;;;;4447845;28;657703;-67
2021/05/19 10:17:39;;;;;;;6.77;4.70;;;18.70;99.90;;;;;;4428871;28;657813;-68
2021/05/19 10:20:27;;;;;;;6.07;4.50;;;18.60;99.90;;;;;;4441432;28;658057;-67
2021/05/19 10:23:15;;;;;;;5.83;4.30;;;18.30;99.90;;;;;;4418761;28;657942;-67
2021/05/19 10:26:06;;;;;;;5.10;3.77;;;18.00;99.90;;;;;;4451043;28;657137;-67
2021/05/19 10:28:53;;;;;;;6.80;4.07;;;18.20;99.90;;;;;;4397972;28;657022;-67
2021/05/19 10:31:43;;;;;;;7.80;4.67;;;17.90;99.90;;;;;;4446897;28;657732;-67
2021/05/19 10:34:45;;;;;;;7.77;4.80;;;17.50;99.90;;;;;;4415835;28;657261;-68
2021/05/19 10:37:46;;;;;;;6.80;4.50;;;17.60;99.90;;;;;;4403617;28;656537;-68
2021/05/19 10:40:32;;;;;;;8.67;5.37;;;17.40;99.90;;;;;;4405455;28;658359;-68
2021/05/19 10:43:20;;;;;;;12.47;4.80;;;17.50;99.90;;;;;;4437859;28;657344;-67
2021/05/19 10:46:07;;;;;;;8.10;4.70;;;18.00;99.90;;;;;;4437788;28;657576;-68
2021/05/19 10:48:54;;;;;;;6.37;4.20;;;18.30;99.90;;;;;;4450052;28;656379;-67
2021/05/19 10:51:44;;;;;;;5.87;3.57;;;18.40;99.90;;;;;;4444663;28;656288;-67
2021/05/19 10:57:44;;;;;;;3.53;3.00;;;19.00;99.90;;;;;;4402007;28;657687;-67
2021/05/19 11:00:31;;;;;;;5.97;3.43;;;19.10;99.90;;;;;;4451145;28;657078;-67
2021/05/19 11:03:18;;;;;;;5.27;3.70;;;19.30;99.90;;;;;;4423509;28;656555;-68
2021/05/19 11:06:12;;;;;;;6.37;3.30;;;19.50;99.90;;;;;;4447642;28;657641;-67
2021/05/19 11:09:24;;;;;;;7.00;3.30;;;19.90;99.90;;;;;;4399185;28;657033;-65
2021/05/19 11:12:49;;;;;;;6.13;3.20;;;19.80;99.90;;;;;;4427315;28;656883;-65
2021/05/19 11:16:02;;;;;;;3.40;2.87;;;19.70;99.90;;;;;;4421790;28;657163;-66
2021/05/19 11:19:10;;;;;;;4.67;3.50;;;19.80;99.90;;;;;;4396144;28;657498;-65
2021/05/19 11:21:59;;;;;;;3.73;2.83;;;20.20;99.90;;;;;;4402940;28;656881;-66
2021/05/19 11:24:53;;;;;;;6.00;3.10;;;20.40;99.90;;;;;;4445715;28;656988;-65
2021/05/19 11:27:41;;;;;;;4.27;3.10;;;20.60;99.90;;;;;;4425226;28;656806;-65
2021/05/19 11:30:29;;;;;;;7.07;3.20;;;21.10;99.90;;;;;;4420428;28;656096;-65
2021/05/19 11:33:20;;;;;;;13.05;3.53;;;20.70;94.10;;;;;;4450570;28;657154;-65
2021/05/19 11:36:07;;;;;;;5.27;3.30;;;20.10;95.90;;;;;;4401380;28;657523;-67
2021/05/19 11:38:54;;;;;;;5.30;2.87;;;19.90;97.30;;;;;;4453713;28;657101;-65
2021/05/19 11:41:41;;;;;;;6.30;3.40;;;20.20;97.50;;;;;;4443953;28;657146;-65
2021/05/19 11:44:33;;;;;;;3.10;2.57;;;19.70;92.70;;;;;;4423198;28;656230;-65
2021/05/19 11:47:24;;;;;;;4.27;3.30;;;19.50;92.90;;;;;;4426642;28;657113;-65
2021/05/19 11:50:15;;;;;;;5.60;3.37;;;19.80;92.90;;;;;;4419916;28;657761;-65
2021/05/19 11:53:05;;;;;;;8.77;3.73;;;20.40;95.20;;;;;;4408095;28;656671;-66
2021/05/19 11:55:53;;;;;;;5.83;3.20;;;20.80;96.50;;;;;;4439047;28;657173;-66
2021/05/19 11:58:40;;;;;;;5.80;3.07;;;20.10;92.40;;;;;;4453076;28;657526;-65
2021/05/19 12:01:28;;;;;;;3.47;2.70;;;20.10;91.50;;;;;;4443156;28;656712;-67
2021/05/19 12:04:18;;;;;;;6.50;3.20;;;19.60;90.30;;;;;;4453821;28;657336;-65
2021/05/19 12:07:06;;;;;;;4.20;2.60;;;18.70;91.80;;;;;;4421906;28;657388;-65
2021/05/19 12:09:53;;;;;;;5.37;2.83;;;17.90;93.80;;;;;;4421567;28;656900;-65
2021/05/19 12:12:41;;;;;;;4.53;3.07;;;17.50;93.90;;;;;;4444258;28;656964;-65
2021/05/19 12:15:30;;;;;;;5.77;2.83;;;17.30;94.80;;;;;;4431008;28;656935;-64
2021/05/19 12:18:18;;;;;;;3.60;2.70;;;17.80;95.20;;;;;;4426346;28;657238;-66
2021/05/19 12:21:09;;;;;;;6.77;2.83;;;18.30;94.00;;;;;;4441293;28;657217;-65
2021/05/19 12:23:56;;;;;;;3.93;2.50;;;18.50;95.00;;;;;;4426152;28;657118;-65
2021/05/19 12:26:42;;;;;;;4.47;3.10;;;18.80;93.80;;;;;;4430110;28;656363;-66
2021/05/19 12:29:31;;;;;;;7.10;3.40;;;18.70;92.30;;;;;;4452011;28;656543;-65
2021/05/19 12:32:19;;;;;;;4.20;3.20;;;18.50;94.90;;;;;;4429107;28;656674;-65
2021/05/19 12:35:08;;;;;;;5.50;2.40;;;18.40;95.30;;;;;;4441203;28;656918;-65
2021/05/19 12:38:00;;;;;;;2.03;1.70;;;18.70;95.10;;;;;;4422469;28;657791;-65
2021/05/19 12:40:48;;;;;;;4.20;1.90;;;18.70;93.20;;;;;;4406630;28;656743;-66
2021/05/19 12:43:35;;;;;;;3.63;1.60;;;18.40;94.10;;;;;;4438051;28;658078;-65
2021/05/19 12:46:22;;;;;;;3.23;1.37;;;17.80;93.40;;;;;;4439693;28;656591;-67
2021/05/19 12:49:12;;;;;;;2.67;1.60;;;18.00;95.70;;;;;;4438595;28;656202;-67
2021/05/19 12:52:01;;;;;;;3.83;1.57;;;18.50;95.80;;;;;;4425179;28;657413;-67
2021/05/19 12:54:49;;;;;;;6.87;1.43;;;18.00;94.20;;;;;;4418637;28;657397;-67
2021/05/19 12:57:36;;;;;;;3.60;1.83;;;17.60;95.10;;;;;;4448772;28;657180;-67
2021/05/19 13:00:23;;;;;;;2.07;1.70;;;17.10;95.50;;;;;;4425405;28;656359;-68
2021/05/19 13:03:12;;;;;;;3.63;1.60;;;16.80;97.30;;;;;;4448041;28;657691;-67
2021/05/19 13:06:03;;;;;;;1.90;1.70;;;16.50;98.10;;;;;;4429523;28;656899;-67
2021/05/19 13:08:57;;;;;;;4.63;1.40;;;16.40;98.10;;;;;;4422591;28;656969;-67
2021/05/19 13:11:47;;;;;;;1.93;1.53;;;16.10;98.50;;;;;;4423745;28;657119;-67
2021/05/19 13:14:36;;;;;;;3.23;1.90;;;16.00;99.60;;;;;;4423764;28;657265;-66
2021/05/19 13:17:29;;;;;;;3.27;1.73;;;16.00;99.90;;;;;;4428909;28;657579;-67
2021/05/19 13:20:20;;;;;;;3.93;2.00;;;16.20;99.90;;;;;;4425697;28;656976;-68
2021/05/19 13:23:09;;;;;;;4.73;1.97;;;16.50;99.90;;;;;;4405760;28;656938;-69
2021/05/19 13:26:06;;;;;;;2.30;1.50;;;16.70;99.90;;;;;;4441816;28;657694;-67
2021/05/19 13:28:54;;;;;;;3.30;2.10;;;17.10;99.90;;;;;;4401972;28;657139;-67
2021/05/19 13:31:45;;;;;;;2.47;1.90;;;17.10;99.90;;;;;;4441448;28;656330;-67
2021/05/19 13:34:38;;;;;;;3.40;1.77;;;17.20;99.90;;;;;;4416067;28;657197;-68
2021/05/19 13:37:24;;;;;;;1.77;1.47;;;17.10;99.90;;;;;;4410975;28;657765;-68
2021/05/19 13:40:12;;;;;;;2.40;1.63;;;17.00;99.90;;;;;;4447829;28;656460;-68
2021/05/19 13:43:00;;;;;;;2.20;1.67;;;16.70;99.90;;;;;;4429488;28;657618;-68
2021/05/19 13:45:48;;;;;;;3.30;1.90;;;16.30;99.90;;;;;;4429914;28;656608;-68
2021/05/19 13:48:35;;;;;;;1.77;1.60;;;16.00;99.90;;;;;;4442524;28;657467;-67
2021/05/19 13:51:22;;;;;;;2.47;1.47;;;15.80;99.90;;;;;;4428628;28;656725;-69
2021/05/19 13:54:09;;;;;;;3.87;1.53;;;15.50;99.90;;;;;;4444312;28;656128;-67
2021/05/19 13:56:56;;;;;;;2.63;1.80;;;15.30;99.90;;;;;;4443549;28;656317;-67
2021/05/19 13:59:44;;;;;;;3.15;1.83;;;15.20;99.90;;;;;;4427179;28;656836;-67
2021/05/19 14:02:31;;;;;;;2.97;1.80;;;15.20;99.90;;;;;;4444533;28;657164;-67
2021/05/19 14:05:24;;;;;;;3.57;1.70;;;15.00;99.90;;;;;;4425612;28;656392;-67
2021/05/19 14:08:11;;;;;;;2.40;1.67;;;14.90;99.90;;;;;;4428933;28;656465;-66
2021/05/19 14:11:03;;;;;;;5.93;2.27;;;14.90;99.90;;;;;;4429262;28;657109;-67
2021/05/19 14:13:53;;;;;;;4.50;2.03;;;14.90;99.90;;;;;;4423809;28;657585;-67
2021/05/19 14:16:57;;;;;;;4.20;2.17;;;15.00;99.90;;;;;;4425006;28;657290;-66
2021/05/19 14:28:55;;;;;;;7.80;3.77;;;16.00;99.90;;;;;;4420511;28;657606;-67